Time;durP1;ratioP1;P1;durP2;ratioP2;P2;SDS_P1;SDS_P2;PMS_P1;PMS_P2;Temp;Humidity;BMP_temperature;BMP_pressure;BME280_temperature;BME280_humidity;BME280_pressure;Samples;Min_cycle;Max_cycle;Signal;HPM_P1;HPM_P2
2023/06/21 00:00:15;;;;;;;8.38;7.58;;;23.10;92.60;;;;;;908090;153;27396;-73
2023/06/21 00:02:39;;;;;;;9.48;6.95;;;23.10;92.80;;;;;;909355;153;27568;-73
2023/06/21 00:05:06;;;;;;;8.63;7.92;;;23.10;93.00;;;;;;909177;153;27393;-73
2023/06/21 00:07:32;;;;;;;8.50;7.60;;;23.00;93.20;;;;;;904422;153;27337;-73
2023/06/21 00:09:59;;;;;;;8.33;7.53;;;23.00;93.40;;;;;;905694;154;27322;-73
2023/06/21 00:12:26;;;;;;;8.65;7.85;;;23.00;93.50;;;;;;904635;154;27426;-73
2023/06/21 00:14:52;;;;;;;8.25;7.62;;;22.90;93.70;;;;;;904080;154;27466;-72
2023/06/21 00:17:19;;;;;;;8.23;7.53;;;22.80;94.00;;;;;;904886;154;27313;-72
2023/06/21 00:19:47;;;;;;;8.88;7.42;;;22.80;94.30;;;;;;902442;154;27792;-73
2023/06/21 00:22:12;;;;;;;7.75;7.15;;;22.70;94.40;;;;;;903405;154;27438;-73
2023/06/21 00:24:39;;;;;;;7.95;7.25;;;22.70;94.50;;;;;;904383;154;27388;-73
2023/06/21 00:27:05;;;;;;;7.78;7.15;;;22.60;94.40;;;;;;905136;154;27400;-72
2023/06/21 00:29:32;;;;;;;10.00;7.80;;;22.60;94.90;;;;;;903987;154;27397;-72
2023/06/21 00:31:59;;;;;;;9.33;8.40;;;22.50;95.00;;;;;;902723;154;27526;-72
2023/06/21 00:34:25;;;;;;;8.58;7.87;;;22.40;95.30;;;;;;903835;154;27421;-73
2023/06/21 00:36:52;;;;;;;8.60;7.80;;;22.50;95.70;;;;;;905343;154;27497;-72
2023/06/21 00:39:18;;;;;;;9.65;8.10;;;22.40;95.80;;;;;;906749;154;27402;-72
2023/06/21 00:41:45;;;;;;;8.75;7.95;;;22.40;96.00;;;;;;902746;157;27919;-72
2023/06/21 00:44:11;;;;;;;8.68;7.87;;;22.30;96.10;;;;;;904670;154;27387;-73
2023/06/21 00:46:39;;;;;;;9.10;8.20;;;22.30;96.30;;;;;;905046;154;27505;-73
2023/06/21 00:49:05;;;;;;;12.53;8.53;;;22.30;96.40;;;;;;904186;154;27483;-72
2023/06/21 00:51:32;;;;;;;8.55;7.75;;;22.30;96.60;;;;;;904628;157;27408;-72
2023/06/21 00:53:58;;;;;;;8.75;8.05;;;22.30;96.80;;;;;;902353;155;27447;-73
2023/06/21 00:56:24;;;;;;;8.30;7.50;;;22.20;96.80;;;;;;903840;154;27496;-72
2023/06/21 00:58:51;;;;;;;8.08;7.37;;;22.20;96.80;;;;;;905283;155;27497;-72
2023/06/21 01:01:18;;;;;;;9.00;7.80;;;22.20;97.00;;;;;;904678;155;27443;-72
2023/06/21 01:03:44;;;;;;;12.23;8.63;;;22.10;97.10;;;;;;905530;154;27731;-72
2023/06/21 01:06:33;;;;;;;8.65;7.75;;;22.10;97.20;;;;;;904168;154;27406;-73
2023/06/21 01:09:13;;;;;;;8.58;7.78;;;22.10;97.50;;;;;;897038;155;27402;-72
2023/06/21 01:11:43;;;;;;;7.37;6.78;;;22.00;97.50;;;;;;900521;157;27535;-73
2023/06/21 01:14:21;;;;;;;7.30;6.70;;;22.00;97.60;;;;;;896411;155;27522;-73
2023/06/21 01:16:47;;;;;;;8.53;7.62;;;22.00;97.80;;;;;;897755;155;27352;-72
2023/06/21 01:19:20;;;;;;;8.33;7.62;;;21.90;98.00;;;;;;897803;155;27412;-72
2023/06/21 01:21:46;;;;;;;9.45;8.45;;;21.90;98.30;;;;;;891039;155;27413;-72
2023/06/21 01:24:31;;;;;;;8.13;7.40;;;21.90;98.60;;;;;;899623;155;27358;-73
2023/06/21 01:27:22;;;;;;;7.65;6.85;;;21.80;98.80;;;;;;898401;155;27402;-73
2023/06/21 01:29:49;;;;;;;7.92;6.87;;;21.80;98.90;;;;;;897489;157;27884;-72
2023/06/21 01:32:15;;;;;;;7.55;6.83;;;21.80;99.10;;;;;;897000;155;27537;-73
2023/06/21 01:34:41;;;;;;;8.28;7.50;;;21.80;99.40;;;;;;899171;155;27523;-73
2023/06/21 01:37:08;;;;;;;8.48;7.65;;;21.80;99.50;;;;;;896828;155;27298;-73
2023/06/21 01:39:35;;;;;;;7.20;6.60;;;21.70;99.70;;;;;;900151;155;27491;-73
2023/06/21 01:42:04;;;;;;;7.75;6.90;;;21.70;99.80;;;;;;899603;155;28000;-73
2023/06/21 01:44:28;;;;;;;7.58;6.97;;;21.70;99.90;;;;;;897653;155;27367;-73
2023/06/21 01:46:54;;;;;;;8.10;7.40;;;21.70;99.90;;;;;;898100;155;27345;-72
2023/06/21 01:49:21;;;;;;;8.60;7.80;;;21.70;99.90;;;;;;898162;155;27485;-73
2023/06/21 01:51:47;;;;;;;7.87;7.17;;;21.70;99.90;;;;;;897271;155;27416;-73
2023/06/21 01:54:15;;;;;;;8.68;7.70;;;21.70;99.90;;;;;;898869;155;27378;-73
2023/06/21 01:56:41;;;;;;;8.33;7.25;;;21.60;99.90;;;;;;898668;155;27381;-72
2023/06/21 01:59:07;;;;;;;8.03;7.25;;;21.60;99.90;;;;;;897942;155;27351;-73
2023/06/21 02:01:34;;;;;;;8.60;7.58;;;21.60;99.90;;;;;;898015;155;27363;-72
2023/06/21 02:04:00;;;;;;;7.90;7.20;;;21.60;99.90;;;;;;898566;155;27412;-72
2023/06/21 02:06:27;;;;;;;9.28;8.25;;;21.60;99.90;;;;;;898453;155;27367;-72
2023/06/21 02:08:54;;;;;;;8.63;7.42;;;21.60;99.90;;;;;;895968;157;27388;-74
2023/06/21 02:11:22;;;;;;;9.25;7.55;;;21.50;99.90;;;;;;897735;155;27385;-74
2023/06/21 02:13:51;;;;;;;8.63;7.78;;;21.50;99.90;;;;;;897033;155;27484;-74
2023/06/21 02:16:13;;;;;;;7.72;7.10;;;21.50;99.90;;;;;;897157;155;27488;-74
2023/06/21 02:18:40;;;;;;;8.15;7.45;;;21.50;99.90;;;;;;897280;155;27401;-74
2023/06/21 02:21:07;;;;;;;8.68;7.33;;;21.40;99.90;;;;;;899452;155;27381;-74
2023/06/21 02:23:33;;;;;;;7.72;6.70;;;21.40;99.90;;;;;;898216;155;27369;-74
2023/06/21 02:26:00;;;;;;;7.87;6.95;;;21.40;99.90;;;;;;896764;155;27405;-74
2023/06/21 02:28:26;;;;;;;7.80;7.10;;;21.40;99.90;;;;;;897881;155;27460;-74
2023/06/21 02:30:53;;;;;;;8.55;7.22;;;21.40;99.90;;;;;;897186;155;27370;-74
2023/06/21 02:33:20;;;;;;;7.80;7.15;;;21.40;99.90;;;;;;897840;155;27576;-74
2023/06/21 02:35:46;;;;;;;8.60;7.80;;;21.30;99.90;;;;;;898897;155;27415;-74
2023/06/21 02:38:13;;;;;;;7.95;7.25;;;21.30;99.90;;;;;;900278;155;27394;-74
2023/06/21 02:40:39;;;;;;;8.53;7.70;;;21.30;99.90;;;;;;897565;158;27457;-74
2023/06/21 02:43:06;;;;;;;9.20;7.37;;;21.30;99.90;;;;;;896920;155;27361;-74
2023/06/21 02:45:33;;;;;;;8.20;7.37;;;21.30;99.90;;;;;;899246;155;27314;-74
2023/06/21 02:47:59;;;;;;;8.58;7.75;;;21.30;99.90;;;;;;900404;155;27420;-74
2023/06/21 02:50:26;;;;;;;8.18;7.37;;;21.20;99.90;;;;;;896456;155;27450;-74
2023/06/21 02:52:52;;;;;;;8.78;7.92;;;21.20;99.90;;;;;;898048;158;27419;-74
2023/06/21 02:55:19;;;;;;;8.63;7.80;;;21.20;99.90;;;;;;898203;155;27324;-77
2023/06/21 02:57:45;;;;;;;8.18;7.47;;;21.20;99.90;;;;;;898889;155;27379;-77
2023/06/21 03:00:31;;;;;;;8.70;7.65;;;21.20;99.90;;;;;;895956;155;27395;-77
2023/06/21 03:02:44;;;;;;;9.80;7.50;;;21.20;99.90;;;;;;897321;155;27512;-77
2023/06/21 03:05:08;;;;;;;8.65;7.95;;;21.20;99.90;;;;;;897831;155;27486;-77
2023/06/21 03:07:35;;;;;;;9.80;7.55;;;21.10;99.90;;;;;;897872;155;27334;-77
2023/06/21 03:10:02;;;;;;;8.03;7.30;;;21.10;99.90;;;;;;907730;153;27911;-77
2023/06/21 03:12:28;;;;;;;8.10;7.30;;;21.10;99.90;;;;;;908188;153;27496;-77
2023/06/21 03:14:54;;;;;;;9.05;7.45;;;21.10;99.90;;;;;;909063;153;27363;-77
2023/06/21 03:17:21;;;;;;;8.15;7.35;;;21.10;99.90;;;;;;908455;153;27331;-77
2023/06/21 03:19:48;;;;;;;8.60;7.55;;;21.00;99.90;;;;;;909309;153;27460;-77
2023/06/21 03:22:14;;;;;;;10.15;7.50;;;21.00;99.90;;;;;;908890;154;27507;-77
2023/06/21 03:24:41;;;;;;;9.43;8.18;;;21.00;99.90;;;;;;909104;153;27380;-77
2023/06/21 03:27:07;;;;;;;8.03;7.22;;;21.00;99.90;;;;;;908880;153;27367;-77
2023/06/21 03:29:34;;;;;;;8.33;7.60;;;21.00;99.90;;;;;;908922;153;27466;-77
2023/06/21 03:32:01;;;;;;;7.92;7.12;;;21.00;99.90;;;;;;908229;156;27414;-77
2023/06/21 03:34:28;;;;;;;8.35;7.47;;;21.00;99.90;;;;;;910021;153;27445;-77
2023/06/21 03:36:54;;;;;;;9.38;7.53;;;21.00;99.90;;;;;;906710;153;27355;-77
2023/06/21 03:39:20;;;;;;;8.40;7.60;;;21.00;99.90;;;;;;908204;153;27382;-77
2023/06/21 03:41:47;;;;;;;8.45;7.65;;;21.00;99.90;;;;;;908613;153;27431;-77
2023/06/21 03:44:14;;;;;;;13.98;7.42;;;21.00;99.90;;;;;;908520;156;27385;-77
2023/06/21 03:46:40;;;;;;;9.68;8.18;;;21.00;99.90;;;;;;908664;153;27399;-77
2023/06/21 03:49:07;;;;;;;8.90;8.13;;;21.00;99.90;;;;;;907801;153;27492;-77
2023/06/21 03:51:33;;;;;;;9.83;7.90;;;21.10;99.90;;;;;;908538;153;27302;-77
2023/06/21 03:54:00;;;;;;;8.35;7.65;;;21.10;99.90;;;;;;908441;156;27492;-77
2023/06/21 03:56:28;;;;;;;8.85;7.90;;;21.10;99.90;;;;;;908430;153;27403;-77
2023/06/21 03:58:53;;;;;;;8.50;7.65;;;21.10;99.90;;;;;;908928;153;27335;-77
2023/06/21 04:01:20;;;;;;;9.60;8.05;;;21.20;99.90;;;;;;909250;153;27461;-77
2023/06/21 04:03:46;;;;;;;10.55;7.95;;;21.20;99.90;;;;;;908610;153;27420;-77
2023/06/21 04:06:13;;;;;;;9.38;8.60;;;21.20;99.90;;;;;;909258;153;27384;-77
2023/06/21 04:08:39;;;;;;;8.55;7.75;;;21.30;99.90;;;;;;908324;153;27477;-77
2023/06/21 04:11:06;;;;;;;9.35;8.30;;;21.40;99.90;;;;;;899132;155;27461;-77
2023/06/21 04:13:33;;;;;;;10.55;7.95;;;21.50;99.90;;;;;;896356;155;27480;-77
2023/06/21 04:15:59;;;;;;;8.83;7.45;;;21.60;99.90;;;;;;900007;155;27456;-77
2023/06/21 04:18:26;;;;;;;10.03;8.13;;;21.70;99.90;;;;;;897731;155;27413;-77
2023/06/21 04:20:52;;;;;;;9.35;7.58;;;21.80;99.90;;;;;;897594;155;27416;-77
2023/06/21 04:23:19;;;;;;;8.78;7.80;;;21.90;99.90;;;;;;899222;155;27339;-77
2023/06/21 04:25:46;;;;;;;7.85;7.05;;;22.00;99.90;;;;;;898530;155;27381;-77
2023/06/21 04:28:12;;;;;;;8.33;7.53;;;22.10;99.90;;;;;;900088;155;27414;-77
2023/06/21 04:30:41;;;;;;;9.98;7.30;;;22.20;99.90;;;;;;897751;157;27526;-77
2023/06/21 04:33:05;;;;;;;7.35;6.70;;;22.30;99.90;;;;;;896056;155;27396;-77
2023/06/21 04:35:33;;;;;;;7.25;6.65;;;22.40;99.90;;;;;;899044;155;27320;-78
2023/06/21 04:38:00;;;;;;;8.40;7.58;;;22.50;99.90;;;;;;898299;155;27452;-77
2023/06/21 04:40:25;;;;;;;7.45;6.85;;;22.60;99.90;;;;;;897151;155;27420;-77
2023/06/21 04:42:54;;;;;;;8.43;7.58;;;22.70;99.90;;;;;;899307;158;27371;-77
2023/06/21 04:45:21;;;;;;;8.73;7.08;;;22.80;99.90;;;;;;897620;155;27441;-76
2023/06/21 04:47:48;;;;;;;8.05;7.35;;;22.90;99.90;;;;;;899376;155;27351;-77
2023/06/21 04:50:14;;;;;;;7.70;6.90;;;22.90;99.90;;;;;;896702;157;27423;-77
2023/06/21 04:52:41;;;;;;;7.72;7.03;;;23.00;99.90;;;;;;896046;157;27635;-77
2023/06/21 04:55:07;;;;;;;6.55;6.05;;;23.10;99.90;;;;;;898604;155;27346;-77
2023/06/21 04:57:34;;;;;;;7.50;6.60;;;23.20;99.90;;;;;;896646;155;27314;-77
2023/06/21 05:00:06;;;;;;;7.78;7.10;;;23.30;99.90;;;;;;899354;158;27446;-77
2023/06/21 05:02:30;;;;;;;8.45;6.80;;;23.30;99.90;;;;;;898123;155;27549;-77
2023/06/21 05:04:56;;;;;;;7.05;6.45;;;23.50;99.90;;;;;;899016;155;27469;-77
2023/06/21 05:07:23;;;;;;;8.20;6.17;;;23.70;99.90;;;;;;898046;155;27393;-77
2023/06/21 05:09:50;;;;;;;7.50;6.20;;;24.00;99.90;;;;;;898814;155;27423;-77
2023/06/21 05:12:16;;;;;;;7.58;6.87;;;24.30;99.90;;;;;;895928;156;27503;-77
2023/06/21 05:14:43;;;;;;;6.87;6.28;;;24.70;99.90;;;;;;899332;155;27392;-77
2023/06/21 05:17:12;;;;;;;6.75;6.20;;;25.10;99.90;;;;;;897800;155;27525;-77
2023/06/21 05:19:36;;;;;;;9.05;7.03;;;25.40;99.90;;;;;;898536;155;27447;-77
2023/06/21 05:22:03;;;;;;;6.72;6.05;;;25.70;99.90;;;;;;896993;155;27889;-77
2023/06/21 05:24:29;;;;;;;7.92;6.58;;;26.00;99.90;;;;;;896673;155;27387;-77
2023/06/21 05:26:56;;;;;;;6.90;5.85;;;26.40;99.90;;;;;;900032;155;27348;-77
2023/06/21 05:29:24;;;;;;;5.95;5.47;;;26.90;99.90;;;;;;898022;155;27359;-78
2023/06/21 05:31:49;;;;;;;5.95;5.28;;;27.40;99.90;;;;;;896912;155;27457;-78
2023/06/21 05:34:16;;;;;;;7.25;5.35;;;28.10;99.90;;;;;;898513;155;27423;-78
2023/06/21 05:36:42;;;;;;;6.87;5.25;;;28.80;99.40;;;;;;898883;155;27392;-78
2023/06/21 05:39:09;;;;;;;5.90;5.35;;;29.50;97.80;;;;;;898710;155;27406;-78
2023/06/21 05:41:35;;;;;;;6.50;5.78;;;30.30;95.20;;;;;;898498;155;27384;-78
2023/06/21 05:44:02;;;;;;;7.47;5.35;;;31.00;91.60;;;;;;898132;156;27405;-78
2023/06/21 05:46:29;;;;;;;5.50;5.00;;;31.50;87.10;;;;;;867966;160;27477;-78
2023/06/21 05:48:55;;;;;;;6.22;5.20;;;32.00;82.00;;;;;;903443;154;27458;-77
2023/06/21 05:51:22;;;;;;;6.15;5.53;;;32.30;77.40;;;;;;903385;154;27322;-79
2023/06/21 05:53:48;;;;;;;6.78;4.83;;;32.50;74.30;;;;;;903228;154;27492;-78
2023/06/21 05:56:15;;;;;;;7.08;5.05;;;32.50;70.90;;;;;;902584;154;27391;-78
2023/06/21 05:58:41;;;;;;;6.47;5.62;;;32.50;69.30;;;;;;903541;154;27486;-78
2023/06/21 06:01:08;;;;;;;5.97;4.92;;;32.30;68.00;;;;;;903185;154;27421;-78
2023/06/21 06:03:35;;;;;;;6.20;5.60;;;32.10;67.50;;;;;;901914;154;27379;-78
2023/06/21 06:06:01;;;;;;;5.45;5.03;;;31.90;66.60;;;;;;904818;154;27402;-78
2023/06/21 06:08:28;;;;;;;6.17;5.40;;;31.60;66.50;;;;;;902184;154;27436;-78
2023/06/21 06:10:54;;;;;;;5.42;5.03;;;31.40;66.60;;;;;;903649;154;27509;-78
2023/06/21 06:13:21;;;;;;;5.55;5.12;;;31.10;66.30;;;;;;903406;154;27363;-78
2023/06/21 06:15:48;;;;;;;5.17;4.60;;;30.70;66.40;;;;;;903225;154;27490;-79
2023/06/21 06:18:14;;;;;;;5.70;5.28;;;30.50;67.00;;;;;;904683;154;27394;-78
2023/06/21 06:20:43;;;;;;;5.72;4.85;;;30.20;67.40;;;;;;904890;154;27363;-78
2023/06/21 06:23:07;;;;;;;6.83;5.20;;;30.00;68.00;;;;;;902879;154;27387;-78
2023/06/21 06:25:34;;;;;;;5.42;4.97;;;29.80;68.80;;;;;;903771;154;27381;-78
2023/06/21 06:28:01;;;;;;;5.55;4.92;;;29.50;69.30;;;;;;902196;154;27466;-78
2023/06/21 06:30:27;;;;;;;5.40;4.90;;;29.40;69.30;;;;;;903178;157;27408;-78
2023/06/21 06:32:54;;;;;;;5.08;4.55;;;29.30;70.20;;;;;;904481;154;27390;-78
2023/06/21 06:35:20;;;;;;;5.30;4.80;;;29.20;70.80;;;;;;903805;154;27398;-78
2023/06/21 06:37:47;;;;;;;7.40;5.35;;;29.20;70.90;;;;;;903631;154;27365;-78
2023/06/21 06:40:13;;;;;;;5.83;5.33;;;29.20;70.90;;;;;;902063;154;27393;-78
2023/06/21 06:42:40;;;;;;;6.58;6.00;;;29.20;70.70;;;;;;903943;154;27370;-78
2023/06/21 06:45:07;;;;;;;5.47;4.87;;;29.20;70.40;;;;;;902746;154;27383;-78
2023/06/21 06:47:33;;;;;;;4.97;4.58;;;29.10;70.50;;;;;;903718;154;27370;-78
2023/06/21 06:50:04;;;;;;;5.62;4.92;;;29.10;70.20;;;;;;904546;154;27393;-78
2023/06/21 06:52:27;;;;;;;5.90;5.30;;;29.00;70.30;;;;;;904908;154;27398;-78
2023/06/21 06:54:53;;;;;;;5.37;4.87;;;29.00;70.80;;;;;;902204;154;27474;-78
2023/06/21 06:57:20;;;;;;;5.28;4.78;;;28.90;70.70;;;;;;903703;154;27515;-78
2023/06/21 06:59:46;;;;;;;5.55;5.05;;;28.90;71.00;;;;;;905036;154;27388;-78
2023/06/21 07:02:13;;;;;;;5.47;5.03;;;28.80;71.40;;;;;;903488;154;27406;-78
2023/06/21 07:04:40;;;;;;;5.78;5.25;;;28.80;71.50;;;;;;902415;154;27532;-77
2023/06/21 07:07:06;;;;;;;5.30;4.80;;;28.80;71.70;;;;;;904343;154;27470;-78
2023/06/21 07:09:33;;;;;;;5.33;4.85;;;28.80;71.70;;;;;;903470;154;27408;-78
2023/06/21 07:12:01;;;;;;;4.85;4.45;;;28.90;71.70;;;;;;908679;153;27421;-78
2023/06/21 07:14:26;;;;;;;5.60;5.08;;;28.90;71.40;;;;;;892404;156;27431;-78
2023/06/21 07:16:53;;;;;;;5.25;4.75;;;29.00;71.90;;;;;;909755;153;27388;-78
2023/06/21 07:19:19;;;;;;;4.58;4.22;;;29.20;71.80;;;;;;912274;153;27290;-78
2023/06/21 07:21:46;;;;;;;5.97;4.45;;;29.40;72.40;;;;;;911041;153;27334;-79
2023/06/21 07:24:12;;;;;;;5.67;4.75;;;29.60;72.20;;;;;;910174;153;27397;-78
2023/06/21 07:26:39;;;;;;;5.53;4.95;;;29.80;71.80;;;;;;910935;153;27429;-78
2023/06/21 07:29:06;;;;;;;5.50;5.10;;;30.00;69.60;;;;;;913016;153;27315;-78
2023/06/21 07:31:32;;;;;;;5.03;4.62;;;30.20;68.60;;;;;;911758;153;27459;-78
2023/06/21 07:34:00;;;;;;;4.45;4.05;;;30.20;67.80;;;;;;911936;156;27385;-79
2023/06/21 07:36:25;;;;;;;5.33;4.92;;;30.20;67.10;;;;;;911294;153;27424;-78
2023/06/21 07:38:52;;;;;;;4.95;4.50;;;30.20;66.30;;;;;;911814;153;27349;-78
2023/06/21 07:41:19;;;;;;;7.25;4.92;;;30.10;66.00;;;;;;910759;153;27383;-78
2023/06/21 07:43:45;;;;;;;5.33;4.92;;;29.90;65.50;;;;;;911630;153;27337;-78
2023/06/21 07:46:12;;;;;;;5.08;4.65;;;29.80;65.30;;;;;;911523;153;27414;-79
2023/06/21 07:48:38;;;;;;;5.42;4.83;;;29.70;65.50;;;;;;913098;153;27406;-78
2023/06/21 07:51:05;;;;;;;4.92;4.42;;;29.50;65.60;;;;;;911354;153;27357;-78
2023/06/21 07:53:32;;;;;;;5.97;4.75;;;29.40;65.70;;;;;;909621;153;27397;-78
2023/06/21 07:56:00;;;;;;;4.70;4.40;;;29.30;66.10;;;;;;909607;153;27454;-78
2023/06/21 07:58:25;;;;;;;7.62;5.03;;;29.30;66.60;;;;;;910540;153;27415;-78
2023/06/21 08:00:51;;;;;;;5.28;4.62;;;29.20;66.60;;;;;;910890;153;27503;-78
2023/06/21 08:03:18;;;;;;;5.58;5.12;;;29.30;66.80;;;;;;910559;153;27381;-78
2023/06/21 08:05:44;;;;;;;5.15;4.75;;;29.40;66.70;;;;;;911833;153;27454;-78
2023/06/21 08:08:12;;;;;;;7.03;5.10;;;29.40;66.80;;;;;;912809;153;27482;-78
2023/06/21 08:10:38;;;;;;;5.03;4.53;;;29.60;67.20;;;;;;910309;153;27474;-78
2023/06/21 08:13:04;;;;;;;4.92;4.53;;;29.80;67.50;;;;;;908996;153;27517;-78
2023/06/21 08:15:31;;;;;;;6.12;5.03;;;30.20;69.50;;;;;;912468;153;27382;-78
2023/06/21 08:17:57;;;;;;;5.53;4.95;;;30.60;70.00;;;;;;912420;153;27385;-78
2023/06/21 08:20:24;;;;;;;7.33;5.10;;;31.20;69.60;;;;;;911926;153;27495;-78
2023/06/21 08:22:51;;;;;;;6.33;5.75;;;31.80;67.50;;;;;;910406;153;27353;-78
2023/06/21 08:25:17;;;;;;;5.78;5.28;;;32.20;65.60;;;;;;910927;153;27360;-78
2023/06/21 08:27:44;;;;;;;6.78;5.30;;;32.60;64.20;;;;;;911968;153;27378;-78
2023/06/21 08:30:10;;;;;;;5.80;5.20;;;33.00;63.50;;;;;;912477;153;26315;-78
2023/06/21 08:32:37;;;;;;;5.65;4.80;;;33.40;63.80;;;;;;910105;153;26330;-78
2023/06/21 08:35:04;;;;;;;5.08;4.67;;;33.90;63.90;;;;;;910739;153;26386;-78
2023/06/21 08:37:30;;;;;;;7.00;4.75;;;34.50;62.80;;;;;;913246;153;26280;-78
2023/06/21 08:39:57;;;;;;;5.55;4.53;;;35.30;62.60;;;;;;909798;153;26312;-78
2023/06/21 08:42:24;;;;;;;4.83;4.22;;;36.10;61.40;;;;;;892519;156;26400;-78
2023/06/21 08:44:53;;;;;;;4.60;4.15;;;37.00;60.30;;;;;;914154;153;26291;-78
2023/06/21 08:47:19;;;;;;;5.17;4.30;;;37.80;59.00;;;;;;911026;153;26259;-78
2023/06/21 08:49:46;;;;;;;4.10;3.75;;;38.70;57.70;;;;;;910994;153;26271;-78
2023/06/21 08:52:13;;;;;;;4.78;4.28;;;39.40;56.40;;;;;;911019;153;26424;-78
2023/06/21 08:54:39;;;;;;;4.08;3.65;;;40.20;55.00;;;;;;911218;153;26400;-78
2023/06/21 08:57:15;;;;;;;5.35;4.00;;;40.90;53.70;;;;;;910133;153;26363;-78
2023/06/21 08:59:41;;;;;;;4.40;4.00;;;41.40;52.20;;;;;;910990;153;26316;-78
2023/06/21 09:02:29;;;;;;;4.45;3.70;;;42.00;51.00;;;;;;911502;153;26396;-77
2023/06/21 09:04:56;;;;;;;3.90;3.60;;;42.40;49.70;;;;;;912198;153;26336;-77
2023/06/21 09:07:22;;;;;;;4.50;3.87;;;42.50;48.00;;;;;;912130;153;26281;-77
2023/06/21 09:09:49;;;;;;;4.08;3.77;;;42.50;46.60;;;;;;891901;159;26389;-77
2023/06/21 09:12:15;;;;;;;4.58;4.05;;;42.20;45.60;;;;;;912210;153;26307;-77
2023/06/21 09:14:42;;;;;;;4.05;3.75;;;41.90;45.00;;;;;;904540;154;26446;-78
2023/06/21 09:17:09;;;;;;;4.50;3.45;;;41.40;45.00;;;;;;903812;154;26260;-77
2023/06/21 09:19:35;;;;;;;4.58;3.95;;;41.00;45.30;;;;;;903583;154;26357;-77
2023/06/21 09:22:02;;;;;;;4.70;4.30;;;40.50;45.30;;;;;;902306;154;26373;-77
2023/06/21 09:24:28;;;;;;;4.25;3.95;;;40.10;45.30;;;;;;903757;154;26428;-78
2023/06/21 09:26:55;;;;;;;4.20;3.80;;;39.70;45.20;;;;;;901526;154;26324;-77
2023/06/21 09:29:22;;;;;;;4.17;3.70;;;39.30;45.40;;;;;;904553;154;26372;-77
2023/06/21 09:31:48;;;;;;;4.00;3.70;;;38.90;45.90;;;;;;905234;157;26287;-77
2023/06/21 09:34:15;;;;;;;3.50;3.30;;;38.60;46.50;;;;;;904863;154;26257;-77
2023/06/21 09:36:41;;;;;;;3.95;3.40;;;38.40;46.60;;;;;;904700;154;26316;-77
2023/06/21 09:39:08;;;;;;;3.98;3.67;;;38.30;46.70;;;;;;902492;154;26309;-77
2023/06/21 09:41:34;;;;;;;3.90;3.20;;;38.10;46.60;;;;;;904252;157;26205;-77
2023/06/21 09:44:01;;;;;;;3.60;3.30;;;38.00;46.20;;;;;;903086;157;26293;-77
2023/06/21 09:46:28;;;;;;;3.85;3.55;;;38.00;47.00;;;;;;903710;154;26335;-77
2023/06/21 09:48:54;;;;;;;3.83;3.45;;;37.90;46.80;;;;;;904694;154;27013;-77
2023/06/21 09:51:23;;;;;;;3.87;3.65;;;37.90;47.00;;;;;;902191;154;26209;-77
2023/06/21 09:53:53;;;;;;;4.58;4.17;;;37.90;47.00;;;;;;902193;154;26373;-76
2023/06/21 09:56:20;;;;;;;3.67;3.37;;;38.00;47.30;;;;;;904763;154;26320;-76
2023/06/21 09:58:50;;;;;;;3.42;3.12;;;38.20;47.50;;;;;;905995;154;26331;-76
2023/06/21 10:01:16;;;;;;;6.15;3.20;;;38.40;47.40;;;;;;901588;154;26319;-77
2023/06/21 10:03:45;;;;;;;3.60;3.30;;;38.70;47.10;;;;;;902603;154;26354;-77
2023/06/21 10:06:16;;;;;;;3.42;3.10;;;38.90;46.40;;;;;;902959;154;26304;-77
2023/06/21 10:08:41;;;;;;;3.42;3.12;;;39.20;45.80;;;;;;903671;154;26346;-77
2023/06/21 10:11:08;;;;;;;3.40;3.10;;;39.30;45.30;;;;;;903708;157;26369;-77
2023/06/21 10:13:36;;;;;;;3.20;2.90;;;39.40;44.90;;;;;;906035;153;26431;-77
2023/06/21 10:16:01;;;;;;;3.47;3.15;;;39.50;44.30;;;;;;893271;156;26416;-77
2023/06/21 10:18:27;;;;;;;3.52;3.22;;;39.40;43.80;;;;;;912207;153;26323;-77
2023/06/21 10:20:57;;;;;;;3.98;2.75;;;39.30;43.40;;;;;;889156;156;26289;-77
2023/06/21 10:23:24;;;;;;;3.27;3.05;;;39.20;43.30;;;;;;890252;156;26361;-76
2023/06/21 10:25:50;;;;;;;3.62;3.33;;;39.10;43.10;;;;;;911289;153;26413;-76
2023/06/21 10:28:16;;;;;;;3.45;3.15;;;38.90;43.20;;;;;;911087;153;26464;-77
2023/06/21 10:30:43;;;;;;;3.20;2.87;;;38.70;43.40;;;;;;912493;153;27777;-77
2023/06/21 10:33:09;;;;;;;3.10;2.90;;;38.60;43.40;;;;;;911310;153;26241;-76
2023/06/21 10:35:36;;;;;;;3.47;3.17;;;38.50;43.50;;;;;;911978;153;26319;-76
2023/06/21 10:38:15;;;;;;;3.27;2.98;;;38.40;43.50;;;;;;910474;153;26431;-76
2023/06/21 10:40:41;;;;;;;3.47;3.17;;;38.30;43.60;;;;;;911106;153;26383;-76
2023/06/21 10:43:10;;;;;;;3.27;2.85;;;38.20;43.40;;;;;;911991;153;26297;-77
2023/06/21 10:45:35;;;;;;;3.10;2.87;;;38.10;43.40;;;;;;912307;153;26261;-76
2023/06/21 10:48:01;;;;;;;3.15;2.90;;;38.00;43.30;;;;;;911526;153;26395;-76
2023/06/21 10:50:28;;;;;;;3.27;2.90;;;37.90;43.10;;;;;;911597;153;26396;-76
2023/06/21 10:52:54;;;;;;;3.12;2.92;;;37.70;42.80;;;;;;910479;153;26315;-76
2023/06/21 10:55:24;;;;;;;4.10;3.20;;;37.50;42.90;;;;;;912269;153;26479;-72
2023/06/21 10:57:47;;;;;;;3.12;2.92;;;37.40;43.30;;;;;;911115;153;26247;-72
2023/06/21 11:00:14;;;;;;;4.58;3.08;;;37.30;43.30;;;;;;891949;156;26401;-72
2023/06/21 11:02:41;;;;;;;3.12;2.92;;;37.20;43.70;;;;;;910283;153;26323;-72
2023/06/21 11:05:20;;;;;;;3.12;2.92;;;37.00;43.70;;;;;;912452;153;26359;-72
2023/06/21 11:08:01;;;;;;;3.40;3.10;;;36.90;43.60;;;;;;912318;153;26311;-72
2023/06/21 11:10:39;;;;;;;3.05;2.85;;;36.80;43.70;;;;;;912307;156;26338;-72
2023/06/21 11:13:06;;;;;;;3.20;3.00;;;36.70;43.90;;;;;;912386;153;26302;-72
2023/06/21 11:15:32;;;;;;;3.22;3.02;;;36.60;44.00;;;;;;904891;154;27522;-72
2023/06/21 11:18:02;;;;;;;3.02;2.83;;;36.50;44.00;;;;;;903913;154;26334;-72
2023/06/21 11:20:31;;;;;;;3.40;3.10;;;36.40;44.00;;;;;;903265;154;27522;-72
2023/06/21 11:22:58;;;;;;;3.90;3.05;;;36.30;43.90;;;;;;901836;154;27436;-72
2023/06/21 11:25:25;;;;;;;3.83;3.40;;;36.20;43.90;;;;;;904385;154;26312;-72
2023/06/21 11:28:25;;;;;;;3.05;2.85;;;36.10;44.20;;;;;;903639;154;27381;-72
2023/06/21 11:31:06;;;;;;;3.60;3.30;;;36.00;44.60;;;;;;903906;154;27404;-72
2023/06/21 11:33:51;;;;;;;3.08;2.87;;;35.90;44.80;;;;;;902123;154;26335;-72
2023/06/21 11:36:21;;;;;;;3.08;2.87;;;35.80;44.90;;;;;;903558;154;26335;-72
2023/06/21 11:39:10;;;;;;;3.45;3.22;;;35.80;44.70;;;;;;904656;154;26264;-72
2023/06/21 11:41:40;;;;;;;2.92;2.72;;;35.80;44.90;;;;;;904233;154;26299;-72
2023/06/21 11:44:02;;;;;;;3.27;3.08;;;35.80;44.80;;;;;;900274;154;27362;-71
2023/06/21 11:46:29;;;;;;;3.35;3.05;;;35.90;45.20;;;;;;905586;154;26349;-72
2023/06/21 11:48:58;;;;;;;3.47;3.20;;;36.00;45.00;;;;;;902068;154;27420;-72
2023/06/21 11:51:25;;;;;;;2.95;2.75;;;36.00;44.90;;;;;;903193;154;26288;-72
2023/06/21 11:53:51;;;;;;;3.40;3.10;;;36.00;44.60;;;;;;903418;154;27465;-72
2023/06/21 11:56:19;;;;;;;3.70;3.40;;;36.10;44.50;;;;;;904217;154;26245;-72
2023/06/21 11:58:44;;;;;;;3.42;3.12;;;36.20;44.40;;;;;;903222;154;27513;-72
2023/06/21 12:01:11;;;;;;;4.95;3.08;;;36.10;44.30;;;;;;904427;156;26422;-72
2023/06/21 12:03:38;;;;;;;3.27;3.02;;;36.20;44.30;;;;;;903867;154;26281;-72
2023/06/21 12:06:04;;;;;;;3.40;3.10;;;36.20;44.40;;;;;;903606;154;26349;-72
2023/06/21 12:08:31;;;;;;;2.90;2.70;;;36.20;44.70;;;;;;902720;154;26315;-72
2023/06/21 12:11:03;;;;;;;3.10;2.90;;;36.20;44.50;;;;;;902032;154;26311;-72
2023/06/21 12:13:29;;;;;;;3.70;3.00;;;36.30;44.40;;;;;;904062;154;26364;-72
2023/06/21 12:15:56;;;;;;;3.30;2.83;;;36.30;44.30;;;;;;908471;154;27465;-72
2023/06/21 12:18:23;;;;;;;3.08;2.87;;;36.40;44.50;;;;;;891990;156;26329;-72
2023/06/21 12:20:49;;;;;;;3.22;3.02;;;36.40;44.00;;;;;;911584;156;26338;-72
2023/06/21 12:23:16;;;;;;;3.33;3.12;;;36.50;44.20;;;;;;892270;159;26282;-72
2023/06/21 12:25:45;;;;;;;3.00;2.80;;;36.50;43.90;;;;;;910537;153;26278;-72
2023/06/21 12:28:13;;;;;;;3.50;3.25;;;36.50;43.80;;;;;;877104;159;27367;-72
2023/06/21 12:30:48;;;;;;;3.02;2.83;;;36.60;43.90;;;;;;911695;153;26429;-72
2023/06/21 12:33:15;;;;;;;3.47;3.17;;;36.60;43.90;;;;;;876252;159;26338;-72
2023/06/21 12:35:41;;;;;;;3.10;2.90;;;36.70;43.60;;;;;;912473;153;26408;-72
2023/06/21 12:38:16;;;;;;;3.50;3.25;;;36.70;43.80;;;;;;891415;156;26286;-72
2023/06/21 12:40:52;;;;;;;3.40;3.10;;;36.80;43.00;;;;;;910629;153;26333;-72
2023/06/21 12:43:37;;;;;;;3.17;2.87;;;36.80;43.00;;;;;;890626;156;27403;-72
2023/06/21 12:46:03;;;;;;;3.10;2.85;;;36.70;42.90;;;;;;910580;156;27506;-72